Time;durP1;ratioP1;P1;durP2;ratioP2;P2;SDS_P1;SDS_P2;PMS_P1;PMS_P2;Temp;Humidity;BMP_temperature;BMP_pressure;BME280_temperature;BME280_humidity;BME280_pressure;Samples;Min_cycle;Max_cycle;Signal;HPM_P1;HPM_P2
2023/06/27 00:01:31;;;;;;;3.77;2.73;;;;;;;18.05;87.06;96363.16;7399858;19;20378;-67
2023/06/27 00:04:00;;;;;;;2.77;2.20;;;;;;;18.46;84.65;96395.88;7400922;19;20359;-67
2023/06/27 00:06:27;;;;;;;5.60;3.60;;;;;;;18.13;84.64;96388.81;7397581;19;20891;-66
2023/06/27 00:08:54;;;;;;;2.60;2.40;;;;;;;18.00;83.54;96379.56;7398862;19;20437;-67
2023/06/27 00:11:21;;;;;;;3.10;2.60;;;;;;;18.31;83.03;96381.66;7399806;19;20391;-67
2023/06/27 00:13:49;;;;;;;5.10;2.50;;;;;;;18.31;82.43;96395.06;7401487;19;20364;-67
2023/06/27 00:16:17;;;;;;;8.07;2.90;;;;;;;18.01;82.67;96373.81;7396576;19;20396;-66
2023/06/27 00:18:47;;;;;;;4.00;2.80;;;;;;;18.22;82.62;96401.88;7397668;19;20423;-67
2023/06/27 00:21:16;;;;;;;4.60;2.43;;;;;;;17.97;83.91;96402.47;7399969;19;20405;-67
2023/06/27 00:23:43;;;;;;;2.97;2.67;;;;;;;17.97;83.10;96404.38;7397875;19;20376;-67
2023/06/27 00:26:13;;;;;;;4.30;2.50;;;;;;;17.80;83.23;96413.06;7398158;19;20372;-67
2023/06/27 00:28:40;;;;;;;4.57;2.03;;;;;;;17.64;83.93;96394.56;7397463;19;20427;-67
2023/06/27 00:31:07;;;;;;;6.60;2.10;;;;;;;17.51;83.25;96390.63;7399753;19;20376;-66
2023/06/27 00:33:34;;;;;;;3.47;1.90;;;;;;;17.46;84.21;96398.97;7397865;19;20392;-67
2023/06/27 00:36:01;;;;;;;5.70;2.20;;;;;;;17.58;84.50;96406.72;7399575;19;20390;-66
2023/06/27 00:38:28;;;;;;;3.37;2.30;;;;;;;17.43;84.19;96409.28;7397530;19;20374;-67
2023/06/27 00:40:57;;;;;;;3.50;2.57;;;;;;;17.40;83.66;96388.63;7399231;19;20395;-66
2023/06/27 00:43:27;;;;;;;4.97;2.40;;;;;;;17.28;85.52;96418.31;7397803;19;20354;-67
2023/06/27 00:45:55;;;;;;;2.50;2.00;;;;;;;17.21;85.74;96409.44;7398432;19;20387;-67
2023/06/27 00:48:22;;;;;;;5.37;2.97;;;;;;;17.08;86.97;96419.59;7397800;19;20414;-67
2023/06/27 00:50:52;;;;;;;4.40;2.47;;;;;;;17.13;86.18;96425.41;7400669;19;20352;-67
2023/06/27 00:53:21;;;;;;;2.80;2.50;;;;;;;17.33;85.58;96423.31;7397363;19;20725;-68
2023/06/27 00:55:48;;;;;;;4.30;2.43;;;;;;;17.02;87.20;96427.19;7398609;19;20903;-67
2023/06/27 00:58:15;;;;;;;10.30;2.30;;;;;;;16.91;88.72;96423.63;7397524;19;20767;-67
2023/06/27 01:00:42;;;;;;;8.13;3.20;;;;;;;17.02;88.42;96437.09;7398586;19;20392;-67
2023/06/27 01:03:09;;;;;;;3.63;2.40;;;;;;;16.66;90.12;96422.53;7397521;19;20343;-67
2023/06/27 01:05:36;;;;;;;3.67;2.03;;;;;;;17.09;88.96;96437.19;7398708;19;20704;-67
2023/06/27 01:08:18;;;;;;;2.27;2.07;;;;;;;16.92;90.12;96433.19;7398694;19;20582;-67
2023/06/27 01:10:56;;;;;;;3.67;2.77;;;;;;;16.61;89.44;96382.81;7396378;19;20724;-67
2023/06/27 01:13:36;;;;;;;4.60;2.10;;;;;;;16.66;91.02;96433.97;7398952;19;20495;-67
2023/06/27 01:16:05;;;;;;;2.03;1.80;;;;;;;16.36;91.66;96420.63;7395969;19;20372;-67
2023/06/27 01:18:32;;;;;;;4.20;2.60;;;;;;;16.49;91.89;96423.84;7398981;19;20395;-67
2023/06/27 01:21:00;;;;;;;3.20;2.90;;;;;;;16.52;92.75;96439.91;7396931;19;20408;-67
2023/06/27 01:23:33;;;;;;;4.83;2.67;;;;;;;16.18;93.44;96416.97;7398648;19;20376;-67
2023/06/27 01:26:03;;;;;;;2.23;2.13;;;;;;;16.35;93.51;96448.44;7396459;19;20368;-66
2023/06/27 01:28:33;;;;;;;2.50;2.30;;;;;;;16.29;93.48;96425.84;7395432;19;20899;-67
2023/06/27 01:31:01;;;;;;;2.33;2.10;;;;;;;15.98;94.09;96399.50;7397121;19;20367;-67
2023/06/27 01:34:02;;;;;;;3.43;1.90;;;;;;;16.11;94.94;96422.94;7395863;19;20360;-67
2023/06/27 01:36:29;;;;;;;5.00;2.10;;;;;;;16.26;94.60;96443.38;7398599;19;20369;-66
2023/06/27 01:39:08;;;;;;;2.43;2.23;;;;;;;15.90;96.97;96451.97;7393634;19;20968;-66
2023/06/27 01:41:38;;;;;;;2.30;2.10;;;;;;;15.95;96.82;96443.66;7396077;19;20384;-67
2023/06/27 01:44:09;;;;;;;3.03;2.17;;;;;;;15.92;96.86;96449.72;7398400;19;20351;-66
2023/06/27 01:46:37;;;;;;;3.57;3.27;;;;;;;16.05;96.60;96458.31;7394578;19;20709;-67
2023/06/27 01:49:05;;;;;;;2.30;2.10;;;;;;;15.66;96.17;96410.47;7396795;19;20434;-67
2023/06/27 01:51:32;;;;;;;2.50;2.30;;;;;;;15.57;97.80;96432.00;7395758;19;20383;-66
2023/06/27 01:53:59;;;;;;;6.13;1.93;;;;;;;15.73;98.29;96458.53;7397304;19;20367;-67
2023/06/27 01:56:27;;;;;;;2.57;2.37;;;;;;;15.77;98.28;96463.97;7393420;19;20438;-67
2023/06/27 01:58:54;;;;;;;5.10;2.50;;;;;;;15.75;97.55;96440.28;7396083;19;20507;-67
2023/06/27 02:01:21;;;;;;;2.53;2.03;;;;;;;15.76;98.70;96470.38;7395172;19;20371;-67
2023/06/27 02:03:48;;;;;;;4.20;2.13;;;;;;;15.50;99.92;96471.84;7397461;19;20372;-66
2023/06/27 02:06:15;;;;;;;3.37;2.57;;;;;;;15.43;100.00;96465.63;7394636;19;20373;-66
2023/06/27 02:08:43;;;;;;;6.60;2.57;;;;;;;15.26;100.00;96445.53;7396741;19;20422;-66
2023/06/27 02:11:10;;;;;;;5.57;3.10;;;;;;;15.30;100.00;96460.44;7395352;19;20381;-67
2023/06/27 02:13:41;;;;;;;3.40;2.30;;;;;;;15.40;100.00;96461.78;7396855;19;20378;-66
2023/06/27 02:16:08;;;;;;;2.60;2.40;;;;;;;15.18;100.00;96449.19;7395271;19;20384;-66
2023/06/27 02:18:34;;;;;;;3.53;2.40;;;;;;;15.30;100.00;96471.09;7396361;19;20413;-67
2023/06/27 02:21:01;;;;;;;3.50;2.40;;;;;;;15.38;100.00;96466.69;7395217;19;20395;-67
2023/06/27 02:23:28;;;;;;;3.00;2.27;;;;;;;15.61;100.00;96467.50;7397459;19;20374;-67
2023/06/27 02:25:55;;;;;;;4.03;2.00;;;;;;;15.53;100.00;96467.72;7396141;19;20390;-66
2023/06/27 02:28:22;;;;;;;3.27;2.27;;;;;;;15.54;100.00;96467.34;7396557;19;20346;-67
2023/06/27 02:30:49;;;;;;;2.50;2.10;;;;;;;15.51;100.00;96441.41;7395513;19;20369;-67
2023/06/27 02:33:16;;;;;;;2.20;2.00;;;;;;;15.28;100.00;96452.03;7404589;19;20796;-67
2023/06/27 02:35:43;;;;;;;4.03;2.60;;;;;;;15.79;100.00;96472.38;7404214;19;20376;-66
2023/06/27 02:38:10;;;;;;;6.67;2.60;;;;;;;15.29;100.00;96450.91;7404401;19;20380;-66
2023/06/27 02:40:37;;;;;;;2.70;2.07;;;;;;;15.35;100.00;96465.47;7399835;19;20430;-66
2023/06/27 02:43:06;;;;;;;4.20;2.37;;;;;;;15.35;100.00;96470.81;7404095;19;20380;-66
2023/06/27 02:45:33;;;;;;;1.67;1.57;;;;;;;15.17;100.00;96466.28;7402577;19;20406;-66
2023/06/27 02:48:00;;;;;;;4.00;2.37;;;;;;;15.43;100.00;96453.06;7400987;19;20406;-67
2023/06/27 02:50:27;;;;;;;2.83;2.40;;;;;;;15.19;100.00;96467.47;7401570;19;20470;-67
2023/06/27 02:52:54;;;;;;;4.40;2.50;;;;;;;15.26;100.00;96485.50;7404554;19;20477;-67
2023/06/27 02:55:21;;;;;;;2.47;2.27;;;;;;;15.09;100.00;96478.72;7406058;19;20373;-67
2023/06/27 02:57:48;;;;;;;2.73;2.37;;;;;;;15.18;100.00;96481.91;7402079;19;20378;-67
2023/06/27 03:00:16;;;;;;;4.93;2.60;;;;;;;15.13;100.00;96484.88;7399957;19;20784;-66
2023/06/27 03:02:43;;;;;;;4.53;2.83;;;;;;;14.91;100.00;96480.22;7401572;19;20383;-66
2023/06/27 03:05:11;;;;;;;6.13;3.03;;;;;;;15.14;100.00;96483.75;7401920;19;20370;-66
2023/06/27 03:07:38;;;;;;;5.57;2.30;;;;;;;15.12;100.00;96469.25;7398582;19;20395;-66
2023/06/27 03:10:06;;;;;;;2.90;2.20;;;;;;;15.19;100.00;96490.66;7399865;19;20965;-66
2023/06/27 03:12:33;;;;;;;2.63;2.03;;;;;;;15.03;100.00;96480.09;7400733;19;20466;-67
2023/06/27 03:15:04;;;;;;;3.20;2.60;;;;;;;15.00;100.00;96454.94;7402178;19;20426;-66
2023/06/27 03:17:32;;;;;;;6.60;2.23;;;;;;;15.19;100.00;96488.78;7400665;19;20383;-66
2023/06/27 03:19:59;;;;;;;4.70;3.10;;;;;;;15.07;100.00;96496.91;7397162;19;20803;-66
2023/06/27 03:22:27;;;;;;;10.33;2.57;;;;;;;14.91;100.00;96485.56;7400519;19;20878;-67
2023/06/27 03:24:54;;;;;;;6.63;2.93;;;;;;;14.83;100.00;96487.31;7402206;19;20366;-67
2023/06/27 03:27:23;;;;;;;5.00;2.73;;;;;;;14.33;100.00;96474.81;7399141;19;20418;-66
2023/06/27 03:29:51;;;;;;;2.30;2.10;;;;;;;14.67;100.00;96494.56;7400841;19;20444;-66
2023/06/27 03:32:19;;;;;;;5.17;2.30;;;;;;;14.45;100.00;96474.72;7400915;19;20371;-66
2023/06/27 03:34:47;;;;;;;2.03;1.80;;;;;;;14.08;100.00;96442.34;7402423;19;20394;-67
2023/06/27 03:37:14;;;;;;;3.73;2.70;;;;;;;14.66;100.00;96498.34;7400520;19;20385;-66
2023/06/27 03:39:41;;;;;;;4.80;2.63;;;;;;;14.54;100.00;96488.59;7400260;19;20439;-66
2023/06/27 03:42:08;;;;;;;3.17;2.37;;;;;;;14.27;100.00;96482.25;7399673;19;20399;-66
2023/06/27 03:44:35;;;;;;;5.57;2.40;;;;;;;13.98;100.00;96443.63;7401317;19;20344;-66
2023/06/27 03:47:02;;;;;;;6.30;2.77;;;;;;;14.05;100.00;96458.97;7399037;19;20450;-66
2023/06/27 03:49:29;;;;;;;3.70;3.40;;;;;;;14.15;100.00;96490.34;7400266;19;20443;-66
2023/06/27 03:51:57;;;;;;;2.97;2.40;;;;;;;14.15;100.00;96488.44;7399887;19;20373;-66
2023/06/27 03:54:24;;;;;;;4.47;2.50;;;;;;;14.20;100.00;96501.50;7401590;19;20390;-67
2023/06/27 03:56:52;;;;;;;2.63;2.43;;;;;;;13.88;100.00;96489.31;7400423;19;20388;-66
2023/06/27 03:59:19;;;;;;;3.20;3.00;;;;;;;13.80;100.00;96488.41;7397921;19;20433;-66
2023/06/27 04:01:46;;;;;;;3.50;2.20;;;;;;;13.94;100.00;96485.31;7400123;19;20432;-66
2023/06/27 04:04:15;;;;;;;6.00;2.40;;;;;;;13.99;100.00;96498.34;7398699;19;20527;-67
2023/06/27 04:06:42;;;;;;;4.60;2.50;;;;;;;13.99;100.00;96494.91;7399318;19;20394;-67
2023/06/27 04:09:09;;;;;;;3.40;2.30;;;;;;;13.97;100.00;96497.91;7397785;19;20454;-67
2023/06/27 04:11:36;;;;;;;4.00;3.13;;;;;;;14.03;100.00;96514.38;7400111;19;20357;-66
2023/06/27 04:14:03;;;;;;;2.70;2.50;;;;;;;14.12;100.00;96501.66;7398586;19;20358;-66
2023/06/27 04:16:30;;;;;;;2.57;2.37;;;;;;;14.21;100.00;96512.91;7399559;19;20369;-67
2023/06/27 04:18:57;;;;;;;4.90;2.83;;;;;;;14.06;100.00;96511.03;7397881;19;20923;-67
2023/06/27 04:21:26;;;;;;;3.80;2.50;;;;;;;14.02;100.00;96503.00;7399753;19;20448;-66
2023/06/27 04:23:57;;;;;;;4.97;2.67;;;;;;;14.06;100.00;96527.75;7397853;19;20369;-66
2023/06/27 04:26:25;;;;;;;3.60;2.10;;;;;;;14.22;100.00;96524.31;7401355;19;20857;-66
2023/06/27 04:28:52;;;;;;;6.50;2.77;;;;;;;14.25;100.00;96520.97;7398529;19;20416;-66
2023/06/27 04:31:19;;;;;;;2.90;2.70;;;;;;;14.35;100.00;96528.44;7399982;19;20376;-66
2023/06/27 04:33:47;;;;;;;2.50;2.30;;;;;;;14.33;100.00;96538.66;7398033;19;20338;-66
2023/06/27 04:36:15;;;;;;;5.50;2.60;;;;;;;14.38;100.00;96533.81;7399853;19;20413;-66
2023/06/27 04:38:44;;;;;;;5.73;2.47;;;;;;;14.56;100.00;96536.94;7395778;19;20423;-66
2023/06/27 04:41:11;;;;;;;3.83;2.40;;;;;;;14.86;100.00;96534.53;7399522;19;20923;-66
2023/06/27 04:43:41;;;;;;;3.00;2.40;;;;;;;14.46;100.00;96543.56;7398249;19;20905;-66
2023/06/27 04:46:08;;;;;;;4.17;2.33;;;;;;;14.43;100.00;96541.56;7400166;19;20367;-66
2023/06/27 04:48:35;;;;;;;2.97;2.60;;;;;;;14.74;100.00;96539.97;7399563;19;20370;-66
2023/06/27 04:51:03;;;;;;;1.93;1.80;;;;;;;14.50;100.00;96532.97;7399637;19;20370;-68
2023/06/27 04:53:32;;;;;;;3.07;2.80;;;;;;;14.64;100.00;96543.16;7398040;19;20976;-68
2023/06/27 04:55:59;;;;;;;5.73;3.80;;;;;;;14.62;100.00;96540.09;7395423;19;20374;-68
2023/06/27 04:58:26;;;;;;;7.80;3.97;;;;;;;14.37;100.00;96520.88;7397779;19;20975;-68
2023/06/27 05:00:53;;;;;;;6.87;3.00;;;;;;;14.54;100.00;96549.78;7399562;19;20410;-68
2023/06/27 05:03:22;;;;;;;3.30;2.47;;;;;;;14.75;100.00;96546.84;7397943;19;20382;-66
2023/06/27 05:05:49;;;;;;;2.47;2.27;;;;;;;14.77;100.00;96555.25;7396004;19;21035;-66
2023/06/27 05:08:16;;;;;;;2.63;2.43;;;;;;;14.82;100.00;96557.63;7392685;19;20846;-66
2023/06/27 05:10:43;;;;;;;5.13;2.10;;;;;;;14.53;100.00;96532.28;7395774;19;20371;-68
2023/06/27 05:13:15;;;;;;;2.43;2.13;;;;;;;14.38;100.00;96530.41;7397607;19;20373;-69
2023/06/27 05:15:42;;;;;;;2.40;2.20;;;;;;;14.41;100.00;96549.09;7396843;19;20370;-68
2023/06/27 05:18:14;;;;;;;5.07;2.17;;;;;;;14.56;100.00;96554.78;7399604;19;20368;-68
2023/06/27 05:20:45;;;;;;;5.07;2.20;;;;;;;14.46;100.00;96538.22;7394796;19;20443;-68
2023/06/27 05:23:12;;;;;;;3.07;2.20;;;;;;;14.43;100.00;96560.19;7397891;19;20365;-67
2023/06/27 05:25:38;;;;;;;4.80;2.03;;;;;;;14.46;100.00;96564.06;7397558;19;20933;-67
2023/06/27 05:28:06;;;;;;;3.57;2.20;;;;;;;14.64;100.00;96565.22;7397001;19;20415;-67
2023/06/27 05:30:33;;;;;;;7.10;3.50;;;;;;;14.75;100.00;96563.59;7395834;19;20861;-67
2023/06/27 05:33:03;;;;;;;9.07;2.87;;;;;;;14.57;100.00;96565.09;7397567;19;20693;-67
2023/06/27 05:35:30;;;;;;;5.10;2.67;;;;;;;14.71;100.00;96559.31;7396384;19;20712;-67
2023/06/27 05:37:58;;;;;;;6.30;2.43;;;;;;;14.64;100.00;96551.94;7398084;19;20406;-67
2023/06/27 05:40:25;;;;;;;7.77;2.80;;;;;;;14.53;100.00;96574.84;7394994;19;20409;-66
2023/06/27 05:42:52;;;;;;;2.87;2.40;;;;;;;14.47;100.00;96554.97;7397982;19;20379;-67
2023/06/27 05:45:19;;;;;;;6.97;2.23;;;;;;;14.83;100.00;96569.09;7395962;19;20896;-66
2023/06/27 05:47:46;;;;;;;3.87;2.90;;;;;;;14.80;100.00;96562.53;7397082;19;20342;-66
2023/06/27 05:50:13;;;;;;;5.07;3.23;;;;;;;14.63;100.00;96547.72;7395105;19;20413;-66
2023/06/27 05:52:40;;;;;;;6.63;2.87;;;;;;;14.90;100.00;96553.25;7397659;19;20381;-66
2023/06/27 05:55:07;;;;;;;2.47;2.27;;;;;;;14.94;100.00;96546.09;7396363;19;20374;-66
2023/06/27 05:57:34;;;;;;;7.23;2.67;;;;;;;15.08;100.00;96551.72;7397441;19;20393;-66
2023/06/27 06:00:01;;;;;;;4.70;2.20;;;;;;;14.93;100.00;96557.88;7394947;19;20401;-66
2023/06/27 06:02:38;;;;;;;3.03;2.50;;;;;;;14.72;100.00;96558.19;7395476;19;20386;-66
2023/06/27 06:05:07;;;;;;;4.67;2.60;;;;;;;14.87;100.00;96561.94;7397395;19;20417;-66
2023/06/27 06:07:34;;;;;;;4.77;2.30;;;;;;;14.87;100.00;96553.94;7392020;19;20387;-67
2023/06/27 06:10:02;;;;;;;4.13;2.27;;;;;;;14.79;100.00;96579.63;7395174;19;20477;-66
2023/06/27 06:12:29;;;;;;;3.57;2.30;;;;;;;14.78;100.00;96568.22;7393329;19;20445;-66
2023/06/27 06:14:56;;;;;;;4.80;2.93;;;;;;;14.67;100.00;96567.19;7396976;19;20363;-66
2023/06/27 06:17:23;;;;;;;2.30;2.10;;;;;;;14.89;100.00;96599.63;7394643;19;20931;-66
2023/06/27 06:19:50;;;;;;;3.27;2.40;;;;;;;14.76;100.00;96589.09;7394692;19;20439;-66
2023/06/27 06:22:17;;;;;;;2.30;2.10;;;;;;;15.10;100.00;96594.78;7397219;19;20345;-65
2023/06/27 06:24:44;;;;;;;3.10;2.10;;;;;;;14.81;100.00;96579.28;7396518;19;20351;-66
2023/06/27 06:27:10;;;;;;;3.00;2.27;;;;;;;14.94;100.00;96599.34;7395797;19;20341;-65
2023/06/27 06:29:37;;;;;;;3.10;2.50;;;;;;;15.29;100.00;96602.00;7395411;19;20429;-66
2023/06/27 06:32:05;;;;;;;2.97;2.10;;;;;;;15.08;100.00;96605.75;7394932;19;20369;-66
2023/06/27 06:34:32;;;;;;;2.73;2.53;;;;;;;15.05;100.00;96597.69;7396411;19;20354;-66
2023/06/27 06:36:59;;;;;;;3.60;2.77;;;;;;;15.23;100.00;96609.50;7394895;19;20474;-66
2023/06/27 06:39:26;;;;;;;3.00;2.37;;;;;;;15.11;100.00;96606.97;7395052;19;20434;-66
2023/06/27 06:41:53;;;;;;;3.20;2.23;;;;;;;15.02;100.00;96606.38;7394565;19;20401;-66
2023/06/27 06:44:20;;;;;;;2.33;2.07;;;;;;;15.29;100.00;96581.47;7396061;19;20383;-65
2023/06/27 06:46:46;;;;;;;2.43;2.10;;;;;;;15.15;100.00;96583.84;7394376;19;20896;-66
2023/06/27 06:49:13;;;;;;;2.37;1.80;;;;;;;15.25;100.00;96609.16;7395302;19;20484;-66
2023/06/27 06:51:40;;;;;;;3.37;2.37;;;;;;;15.29;100.00;96599.34;7394115;19;20372;-66
2023/06/27 06:54:07;;;;;;;10.10;2.27;;;;;;;15.46;100.00;96598.91;7395795;19;20893;-66
2023/06/27 06:56:34;;;;;;;2.87;2.13;;;;;;;15.29;100.00;96586.00;7394456;19;20369;-66
2023/06/27 06:59:02;;;;;;;6.63;2.27;;;;;;;15.78;100.00;96606.81;7395210;19;20469;-65
2023/06/27 07:01:29;;;;;;;2.70;1.80;;;;;;;15.50;100.00;96605.09;7394966;19;20450;-65
2023/06/27 07:03:57;;;;;;;4.17;2.10;;;;;;;15.57;100.00;96610.56;7395865;19;20440;-65
2023/06/27 07:06:24;;;;;;;3.13;1.90;;;;;;;16.37;100.00;96606.31;7394011;19;20897;-67
2023/06/27 07:08:52;;;;;;;2.50;1.93;;;;;;;16.33;100.00;96608.16;7393864;19;20444;-67
2023/06/27 07:11:19;;;;;;;3.20;2.00;;;;;;;16.86;100.00;96610.94;7395655;19;20330;-66
2023/06/27 07:13:46;;;;;;;2.53;2.17;;;;;;;16.75;100.00;96597.41;7395378;19;20934;-66
2023/06/27 07:16:13;;;;;;;2.53;1.90;;;;;;;16.69;100.00;96601.50;7394144;19;20339;-66
2023/06/27 07:18:42;;;;;;;2.80;2.17;;;;;;;16.03;100.00;96586.69;7397018;19;20435;-67
2023/06/27 07:21:09;;;;;;;1.73;1.63;;;;;;;15.96;100.00;96607.91;7402893;19;20339;-67
2023/06/27 07:23:36;;;;;;;4.07;2.03;;;;;;;16.39;100.00;96608.63;7399453;19;20385;-67
2023/06/27 07:26:04;;;;;;;4.37;2.40;;;;;;;16.74;100.00;96579.06;7417553;19;20407;-68
2023/06/27 07:28:31;;;;;;;4.10;1.97;;;;;;;17.00;98.01;96610.34;7431782;19;20409;-68
2023/06/27 07:30:58;;;;;;;2.97;1.90;;;;;;;16.33;94.83;96596.72;7421796;19;20351;-66
2023/06/27 07:33:25;;;;;;;2.60;2.03;;;;;;;16.31;92.87;96589.06;7425673;19;20344;-70
2023/06/27 07:35:52;;;;;;;5.43;2.07;;;;;;;16.46;92.88;96596.19;7435747;19;20401;-70
2023/06/27 07:38:19;;;;;;;2.60;1.90;;;;;;;16.86;93.00;96578.09;7433540;19;20398;-71
2023/06/27 07:40:45;;;;;;;8.20;1.93;;;;;;;16.35;92.00;96613.13;7436177;19;20463;-71
2023/06/27 07:43:12;;;;;;;2.80;1.67;;;;;;;16.14;94.78;96586.84;7434260;19;20404;-70
2023/06/27 07:45:39;;;;;;;2.60;2.20;;;;;;;16.04;96.13;96579.47;7435968;19;20387;-69
2023/06/27 07:48:06;;;;;;;1.70;1.60;;;;;;;16.37;98.03;96576.19;7421311;19;20410;-66
2023/06/27 07:50:33;;;;;;;2.87;2.23;;;;;;;16.31;95.50;96599.75;7399058;19;20986;-67
2023/06/27 07:53:00;;;;;;;4.70;2.40;;;;;;;16.22;98.09;96591.97;7399759;19;20386;-66
2023/06/27 07:55:27;;;;;;;2.90;2.20;;;;;;;16.55;100.00;96603.91;7400849;19;20912;-66
2023/06/27 07:57:54;;;;;;;3.33;1.87;;;;;;;16.79;96.64;96603.56;7399430;19;20402;-67
2023/06/27 08:00:22;;;;;;;4.83;2.10;;;;;;;16.81;94.84;96603.19;7399324;19;20552;-68
2023/06/27 08:02:49;;;;;;;3.70;1.80;;;;;;;16.45;95.40;96575.94;7399532;19;20374;-66
2023/06/27 08:05:18;;;;;;;3.20;2.60;;;;;;;17.27;94.32;96587.81;7400650;19;20704;-66
2023/06/27 08:07:45;;;;;;;3.50;2.60;;;;;;;17.56;89.72;96558.75;7398716;19;20477;-67
2023/06/27 08:10:12;;;;;;;3.37;2.30;;;;;;;17.48;90.48;96567.81;7399242;19;20436;-67
2023/06/27 08:12:39;;;;;;;5.50;1.97;;;;;;;17.34;88.15;96592.47;7398799;19;20374;-68
2023/06/27 08:15:06;;;;;;;1.60;1.50;;;;;;;17.85;86.85;96591.94;7400647;19;20776;-67
2023/06/27 08:17:33;;;;;;;4.57;2.70;;;;;;;18.72;80.76;96593.13;7399036;19;20388;-66
2023/06/27 08:20:00;;;;;;;6.00;1.80;;;;;;;18.55;80.41;96599.81;7398375;19;20436;-66
2023/06/27 08:22:27;;;;;;;2.20;1.83;;;;;;;18.52;80.35;96597.13;7398904;19;20367;-67
2023/06/27 08:24:57;;;;;;;3.20;1.90;;;;;;;17.80;78.17;96585.00;7400066;19;20422;-67
2023/06/27 08:27:24;;;;;;;2.40;1.70;;;;;;;18.06;78.01;96570.75;7398420;19;20411;-66
2023/06/27 08:29:51;;;;;;;1.93;1.70;;;;;;;17.64;77.22;96585.22;7397792;19;20449;-67
2023/06/27 08:32:18;;;;;;;5.70;2.03;;;;;;;18.38;78.11;96591.66;7398426;19;20739;-67
2023/06/27 08:34:45;;;;;;;2.60;2.30;;;;;;;17.65;76.10;96581.41;7399902;19;20379;-67
2023/06/27 08:37:13;;;;;;;7.90;2.20;;;;;;;17.62;73.92;96567.97;7398509;19;20408;-67
2023/06/27 08:39:40;;;;;;;3.00;1.50;;;;;;;17.29;72.93;96596.25;7400311;19;20438;-67
2023/06/27 08:42:07;;;;;;;1.73;1.63;;;;;;;17.01;74.29;96596.63;7398785;19;20390;-67
2023/06/27 08:44:37;;;;;;;2.80;1.73;;;;;;;16.83;75.23;96585.72;7397814;19;20383;-66
2023/06/27 08:47:06;;;;;;;3.63;1.73;;;;;;;17.17;74.41;96601.03;7398302;19;20386;-67
2023/06/27 08:49:34;;;;;;;1.90;1.57;;;;;;;17.69;74.29;96595.59;7394645;19;20980;-66
2023/06/27 08:52:02;;;;;;;2.03;1.80;;;;;;;17.80;70.96;96600.28;7398401;19;20383;-66
2023/06/27 08:54:34;;;;;;;3.77;2.17;;;;;;;17.80;71.33;96573.53;7396954;19;20411;-67
2023/06/27 08:57:03;;;;;;;3.43;1.47;;;;;;;18.25;72.29;96583.91;7398588;19;20493;-67
2023/06/27 08:59:37;;;;;;;2.13;1.60;;;;;;;18.80;67.42;96577.84;7395538;19;20503;-66
2023/06/27 09:02:06;;;;;;;1.80;1.53;;;;;;;19.40;68.19;96593.50;7398543;19;20348;-67
2023/06/27 09:04:33;;;;;;;8.43;2.37;;;;;;;19.70;64.51;96577.91;7396824;19;20348;-68
2023/06/27 09:07:01;;;;;;;9.43;1.50;;;;;;;18.85;61.44;96582.88;7398423;19;20388;-67
2023/06/27 09:09:29;;;;;;;4.93;1.70;;;;;;;19.27;61.34;96593.06;7397027;19;20953;-66
2023/06/27 09:12:01;;;;;;;3.77;1.83;;;;;;;19.16;61.34;96589.53;7398254;19;20352;-66
2023/06/27 09:14:29;;;;;;;1.30;1.20;;;;;;;18.97;63.28;96584.47;7397128;19;20381;-67
2023/06/27 09:16:55;;;;;;;3.83;1.40;;;;;;;18.23;62.32;96577.41;7395330;19;20741;-66
2023/06/27 09:19:23;;;;;;;5.97;2.60;;;;;;;18.98;62.23;96562.66;7395807;19;20448;-66
2023/06/27 09:21:50;;;;;;;2.03;1.47;;;;;;;18.87;62.42;96585.94;7398291;19;20376;-66
2023/06/27 09:24:22;;;;;;;2.33;1.50;;;;;;;18.46;62.62;96577.19;7397090;19;20776;-66
2023/06/27 09:26:49;;;;;;;1.40;1.30;;;;;;;19.23;62.53;96586.13;7396807;19;20354;-65
2023/06/27 09:29:16;;;;;;;5.50;1.90;;;;;;;18.23;62.87;96542.59;7395485;19;20433;-66
2023/06/27 09:31:43;;;;;;;4.33;1.50;;;;;;;19.36;62.43;96553.22;7397341;19;20367;-69
2023/06/27 09:34:10;;;;;;;2.77;2.33;;;;;;;19.67;63.66;96577.91;7416366;19;20403;-69
2023/06/27 09:36:41;;;;;;;2.50;1.50;;;;;;;19.42;62.84;96585.84;7417429;19;20366;-69
2023/06/27 09:39:12;;;;;;;1.50;1.40;;;;;;;19.26;61.25;96590.75;7410918;19;20437;-69
2023/06/27 09:41:49;;;;;;;2.33;1.93;;;;;;;19.65;62.20;96577.53;7393716;19;20409;-69
2023/06/27 09:44:23;;;;;;;7.47;2.13;;;;;;;19.45;62.09;96572.44;7397411;19;20371;-69
2023/06/27 09:46:54;;;;;;;1.50;1.40;;;;;;;19.17;62.21;96575.00;7395913;19;20893;-69
2023/06/27 09:49:22;;;;;;;1.67;1.43;;;;;;;19.32;61.38;96565.88;7395738;19;20416;-68
2023/06/27 09:51:50;;;;;;;2.60;1.60;;;;;;;19.64;59.95;96566.03;7395743;19;20345;-69
2023/06/27 09:54:20;;;;;;;2.73;1.80;;;;;;;19.34;62.75;96582.34;7397295;19;20686;-69
2023/06/27 09:56:52;;;;;;;1.80;1.60;;;;;;;18.80;63.33;96577.84;7395843;19;20354;-69
2023/06/27 09:59:25;;;;;;;5.83;1.70;;;;;;;18.53;64.03;96545.88;7394721;19;20797;-69
2023/06/27 10:01:53;;;;;;;2.00;1.80;;;;;;;20.23;62.07;96547.72;7396584;19;20403;-68
2023/06/27 10:04:21;;;;;;;3.43;2.00;;;;;;;19.91;60.97;96576.44;7394523;19;20373;-66
2023/06/27 10:06:51;;;;;;;2.50;1.73;;;;;;;19.13;63.18;96572.31;7396176;19;20352;-66
2023/06/27 10:09:19;;;;;;;3.70;1.73;;;;;;;19.39;62.57;96549.81;7393964;19;20428;-67
2023/06/27 10:11:46;;;;;;;2.23;1.53;;;;;;;19.67;62.68;96535.75;7396125;19;20394;-67
2023/06/27 10:14:14;;;;;;;2.53;1.63;;;;;;;19.99;62.14;96553.81;7394373;19;20718;-66
2023/06/27 10:16:41;;;;;;;1.60;1.50;;;;;;;19.78;62.47;96549.19;7395932;19;20400;-67
2023/06/27 10:19:08;;;;;;;2.17;1.97;;;;;;;19.76;62.69;96564.88;7393890;19;20433;-66
2023/06/27 10:21:36;;;;;;;2.50;1.80;;;;;;;19.85;59.86;96551.88;7396382;19;20408;-66
2023/06/27 10:24:04;;;;;;;6.23;1.60;;;;;;;19.80;59.36;96573.72;7394627;19;20412;-66
2023/06/27 10:26:32;;;;;;;2.40;1.60;;;;;;;19.58;59.16;96569.44;7396857;19;20409;-66
2023/06/27 10:29:12;;;;;;;4.53;1.83;;;;;;;18.97;60.29;96576.44;7394238;19;20472;-66
2023/06/27 10:31:45;;;;;;;3.77;1.60;;;;;;;18.53;60.61;96537.84;7396959;19;20356;-66
2023/06/27 10:34:21;;;;;;;1.97;1.77;;;;;;;19.32;60.75;96567.78;7398129;19;20692;-67
2023/06/27 10:36:49;;;;;;;1.60;1.50;;;;;;;18.96;61.63;96554.19;7395263;19;20707;-67
2023/06/27 10:39:31;;;;;;;1.93;1.40;;;;;;;18.84;61.45;96573.28;7392878;19;20425;-66
2023/06/27 10:42:17;;;;;;;6.30;2.00;;;;;;;19.32;60.52;96570.47;7394428;19;20347;-67
2023/06/27 10:45:05;;;;;;;1.97;1.70;;;;;;;19.32;60.05;96560.50;7393618;19;20428;-66
2023/06/27 10:47:38;;;;;;;2.60;1.70;;;;;;;19.36;59.69;96561.28;7395333;19;20396;-66
2023/06/27 10:50:21;;;;;;;2.87;1.50;;;;;;;19.32;60.95;96530.25;7391905;19;20964;-66
2023/06/27 10:53:09;;;;;;;1.93;1.60;;;;;;;19.78;60.99;96563.38;7397501;19;20399;-69
2023/06/27 10:55:38;;;;;;;2.30;1.83;;;;;;;19.83;60.57;96548.81;7403911;19;20358;-68
2023/06/27 10:58:14;;;;;;;2.67;1.60;;;;;;;19.89;58.83;96558.00;7401260;19;20408;-68
2023/06/27 11:00:42;;;;;;;2.80;1.60;;;;;;;20.90;57.78;96571.09;7400825;19;20463;-68
2023/06/27 11:03:10;;;;;;;5.40;2.20;;;;;;;19.91;60.33;96539.63;7401534;19;20372;-68
2023/06/27 11:05:46;;;;;;;3.50;1.80;;;;;;;20.16;57.51;96565.72;7401311;19;20341;-69
2023/06/27 11:08:17;;;;;;;3.20;1.50;;;;;;;19.90;60.11;96562.25;7401635;19;20832;-69
2023/06/27 11:11:05;;;;;;;3.57;1.80;;;;;;;19.67;59.76;96525.03;7400179;19;20364;-68
2023/06/27 11:13:43;;;;;;;1.70;1.50;;;;;;;20.31;56.72;96548.47;7401975;19;20363;-68
2023/06/27 11:16:14;;;;;;;3.47;2.20;;;;;;;19.90;58.41;96540.00;7401381;19;20965;-69
2023/06/27 11:18:41;;;;;;;3.70;1.50;;;;;;;20.16;59.12;96552.28;7402232;19;20743;-68
2023/06/27 11:21:08;;;;;;;3.00;1.47;;;;;;;19.83;59.01;96527.34;7401414;19;20855;-68
2023/06/27 11:23:37;;;;;;;4.40;2.20;;;;;;;19.80;57.52;96520.06;7399907;19;20406;-68
2023/06/27 11:26:04;;;;;;;2.50;1.23;;;;;;;19.49;59.83;96546.38;7402275;19;20403;-68
2023/06/27 11:28:35;;;;;;;3.83;1.83;;;;;;;20.44;58.18;96549.66;7400804;19;20361;-69
2023/06/27 11:31:03;;;;;;;1.73;1.63;;;;;;;20.54;56.84;96572.28;7401171;19;20702;-68
2023/06/27 11:33:30;;;;;;;3.47;1.87;;;;;;;20.19;56.53;96560.38;7399671;19;20925;-69
2023/06/27 11:36:01;;;;;;;1.63;1.43;;;;;;;20.57;55.30;96561.56;7401443;19;20381;-68